Time;durP1;ratioP1;P1;durP2;ratioP2;P2;SDS_P1;SDS_P2;PMS_P1;PMS_P2;Temp;Humidity;BMP_temperature;BMP_pressure;BME280_temperature;BME280_humidity;BME280_pressure;Samples;Min_cycle;Max_cycle;Signal;HPM_P1;HPM_P2
2020/12/09 00:01:46;;;;;;;;;;;;;;;;;;5053331;28;19955;-42
2020/12/09 00:04:11;;;;;;;;;;;;;;;;;;5052403;28;19904;-44
2020/12/09 00:06:36;;;;;;;;;;;;;;;;;;5053116;28;20401;-42
2020/12/09 00:09:01;;;;;;;;;;;;;;;;;;5053229;28;19950;-43
2020/12/09 00:11:27;;;;;;;;;;;;;;;;;;5053092;28;19931;-42
2020/12/09 00:13:52;;;;;;;;;;;;;;;;;;5051998;28;20320;-43
2020/12/09 00:16:17;;;;;;;;;;;;;;;;;;5053234;28;19916;-41
2020/12/09 00:18:42;;;;;;;;;;;;;;;;;;5053010;28;19909;-42
2020/12/09 00:21:07;;;;;;;;;;;;;;;;;;5052977;28;19909;-41
2020/12/09 00:23:32;;;;;;;;;;;;;;;;;;5049818;28;19916;-42
2020/12/09 00:25:57;;;;;;;;;;;;;;;;;;5052687;28;19909;-41
2020/12/09 00:28:22;;;;;;;;;;;;;;;;;;5051909;28;20297;-39
2020/12/09 00:30:48;;;;;;;;;;;;;;;;;;5050402;28;19995;-41
2020/12/09 00:33:13;;;;;;;;;;;;;;;;;;5050854;28;20179;-42
2020/12/09 00:35:38;;;;;;;;;;;;;;;;;;5052621;28;19952;-42
2020/12/09 00:38:07;;;;;;;;;;;;;;;;;;5052521;28;19920;-44
2020/12/09 00:40:32;;;;;;;;;;;;;;;;;;5052816;28;19962;-45
2020/12/09 00:42:57;;;;;;;;;;;;;;;;;;5051748;28;19913;-41
2020/12/09 00:45:22;;;;;;;;;;;;;;;;;;5052523;28;19954;-44
2020/12/09 00:47:47;;;;;;;;;;;;;;;;;;5052522;28;20065;-41
2020/12/09 00:52:37;;;;;;;;;;;;;;;;;;5051770;28;20010;-42
2020/12/09 00:55:02;;;;;;;;;;;;;;;;;;5052130;28;19971;-42
2020/12/09 00:57:27;;;;;;;;;;;;;;;;;;5052418;28;20338;-41
2020/12/09 00:59:53;;;;;;;;;;;;;;;;;;5052424;28;20324;-43
2020/12/09 01:02:18;;;;;;;;;;;;;;;;;;5051604;28;20340;-41
2020/12/09 01:04:43;;;;;;;;;;;;;;;;;;5052539;28;20327;-42
2020/12/09 01:07:08;;;;;;;;;;;;;;;;;;5052305;28;20324;-42
2020/12/09 01:09:33;;;;;;;;;;;;;;;;;;5052234;28;20254;-44
2020/12/09 01:11:58;;;;;;;;;;;;;;;;;;5051587;28;20753;-41
2020/12/09 01:14:23;;;;;;;;;;;;;;;;;;5051755;28;20366;-41
2020/12/09 01:16:48;;;;;;;;;;;;;;;;;;5052136;28;20408;-42
2020/12/09 01:19:13;;;;;;;;;;;;;;;;;;5052133;28;20362;-43
2020/12/09 01:21:38;;;;;;;;;;;;;;;;;;5052176;28;20361;-43
2020/12/09 01:24:04;;;;;;;;;;;;;;;;;;5049291;28;19962;-41
2020/12/09 01:26:29;;;;;;;;;;;;;;;;;;5052084;28;20003;-42
2020/12/09 01:28:54;;;;;;;;;;;;;;;;;;5052408;28;20417;-41
2020/12/09 01:31:20;;;;;;;;;;;;;;;;;;5052125;28;19913;-45
2020/12/09 01:33:45;;;;;;;;;;;;;;;;;;5051052;28;20378;-41
2020/12/09 01:36:10;;;;;;;;;;;;;;;;;;5054648;28;20447;-43
2020/12/09 01:38:35;;;;;;;;;;;;;;;;;;5055920;28;19909;-45
2020/12/09 01:41:00;;;;;;;;;;;;;;;;;;5056012;28;19919;-41
2020/12/09 01:43:25;;;;;;;;;;;;;;;;;;5055201;28;20374;-43
2020/12/09 01:45:51;;;;;;;;;;;;;;;;;;5055832;28;19913;-41
2020/12/09 01:48:16;;;;;;;;;;;;;;;;;;5055849;28;19963;-43
2020/12/09 01:50:41;;;;;;;;;;;;;;;;;;5055859;28;19912;-42
2020/12/09 01:53:06;;;;;;;;;;;;;;;;;;5054879;28;19913;-43
2020/12/09 01:55:31;;;;;;;;;;;;;;;;;;5055708;28;19908;-41
2020/12/09 01:57:56;;;;;;;;;;;;;;;;;;5055515;28;19908;-43
2020/12/09 02:00:21;;;;;;;;;;;;;;;;;;5055809;28;19909;-42
2020/12/09 02:02:46;;;;;;;;;;;;;;;;;;5054816;28;19964;-42
2020/12/09 02:05:11;;;;;;;;;;;;;;;;;;5055744;28;20327;-42
2020/12/09 02:07:37;;;;;;;;;;;;;;;;;;5055452;28;19909;-41
2020/12/09 02:10:02;;;;;;;;;;;;;;;;;;5055357;28;19915;-41
2020/12/09 02:12:27;;;;;;;;;;;;;;;;;;5054735;28;20259;-42
2020/12/09 02:14:52;;;;;;;;;;;;;;;;;;5055095;28;19917;-43
2020/12/09 02:17:17;;;;;;;;;;;;;;;;;;5055397;28;19909;-42
2020/12/09 02:19:43;;;;;;;;;;;;;;;;;;5055227;28;19944;-43
2020/12/09 02:22:08;;;;;;;;;;;;;;;;;;5054571;28;19916;-42
2020/12/09 02:24:33;;;;;;;;;;;;;;;;;;5053161;28;19909;-42
2020/12/09 02:26:58;;;;;;;;;;;;;;;;;;5055137;28;19916;-41
2020/12/09 02:29:23;;;;;;;;;;;;;;;;;;5055104;28;19909;-42
2020/12/09 02:31:48;;;;;;;;;;;;;;;;;;5054938;28;19908;-41
2020/12/09 02:34:13;;;;;;;;;;;;;;;;;;5053669;28;19913;-42
2020/12/09 02:36:38;;;;;;;;;;;;;;;;;;5054929;28;20004;-42
2020/12/09 02:39:03;;;;;;;;;;;;;;;;;;5054843;28;19951;-43
2020/12/09 02:41:29;;;;;;;;;;;;;;;;;;5055101;28;20400;-42
2020/12/09 02:43:54;;;;;;;;;;;;;;;;;;5054075;28;19909;-42
2020/12/09 02:46:19;;;;;;;;;;;;;;;;;;5054445;28;19966;-45
2020/12/09 02:48:44;;;;;;;;;;;;;;;;;;5054868;28;20293;-41
2020/12/09 02:51:09;;;;;;;;;;;;;;;;;;5054679;28;19931;-45
2020/12/09 02:53:34;;;;;;;;;;;;;;;;;;5053702;28;20403;-42
2020/12/09 02:55:59;;;;;;;;;;;;;;;;;;5054513;28;19913;-43
2020/12/09 02:58:26;;;;;;;;;;;;;;;;;;5054548;28;19962;-41
2020/12/09 03:00:51;;;;;;;;;;;;;;;;;;5054386;28;20362;-42
2020/12/09 03:03:16;;;;;;;;;;;;;;;;;;5053677;28;20427;-42
2020/12/09 03:05:41;;;;;;;;;;;;;;;;;;5054377;28;20357;-42
2020/12/09 03:08:06;;;;;;;;;;;;;;;;;;5054345;28;19908;-42
2020/12/09 03:10:31;;;;;;;;;;;;;;;;;;5054207;28;19948;-45
2020/12/09 03:12:58;;;;;;;;;;;;;;;;;;5053401;28;19948;-42
2020/12/09 03:15:23;;;;;;;;;;;;;;;;;;5054480;28;19954;-42
2020/12/09 03:17:48;;;;;;;;;;;;;;;;;;5054388;28;19912;-44
2020/12/09 03:20:13;;;;;;;;;;;;;;;;;;5054045;28;19908;-42
2020/12/09 03:22:38;;;;;;;;;;;;;;;;;;5053208;28;19916;-43
2020/12/09 03:25:03;;;;;;;;;;;;;;;;;;5052242;28;19913;-42
2020/12/09 03:27:28;;;;;;;;;;;;;;;;;;5053917;28;19916;-42
2020/12/09 03:29:53;;;;;;;;;;;;;;;;;;5053884;28;19908;-42
2020/12/09 03:32:18;;;;;;;;;;;;;;;;;;5053208;28;19908;-41
2020/12/09 03:34:43;;;;;;;;;;;;;;;;;;5053720;28;19935;-42
2020/12/09 03:37:09;;;;;;;;;;;;;;;;;;5053717;28;19991;-41
2020/12/09 03:39:34;;;;;;;;;;;;;;;;;;5053623;28;20330;-43
2020/12/09 03:41:59;;;;;;;;;;;;;;;;;;5052971;28;20347;-42
2020/12/09 03:44:24;;;;;;;;;;;;;;;;;;5053759;28;20353;-42
2020/12/09 03:46:49;;;;;;;;;;;;;;;;;;5053627;28;20325;-43
2020/12/09 03:49:14;;;;;;;;;;;;;;;;;;5053677;28;20293;-42
2020/12/09 03:51:39;;;;;;;;;;;;;;;;;;5053597;28;20290;-43
2020/12/09 03:54:04;;;;;;;;;;;;;;;;;;5052011;28;20422;-42
2020/12/09 03:56:30;;;;;;;;;;;;;;;;;;5052264;28;20380;-42
2020/12/09 03:58:55;;;;;;;;;;;;;;;;;;5052187;28;19912;-43
2020/12/09 04:01:20;;;;;;;;;;;;;;;;;;5053276;28;19913;-42
2020/12/09 04:03:45;;;;;;;;;;;;;;;;;;5052775;28;19905;-43
2020/12/09 04:06:10;;;;;;;;;;;;;;;;;;5053210;28;19917;-42
2020/12/09 04:08:35;;;;;;;;;;;;;;;;;;5053195;28;19905;-43
2020/12/09 04:11:00;;;;;;;;;;;;;;;;;;5053144;28;19919;-42
2020/12/09 04:13:26;;;;;;;;;;;;;;;;;;5052353;28;19996;-43
2020/12/09 04:15:51;;;;;;;;;;;;;;;;;;5053095;28;20297;-43
2020/12/09 04:18:16;;;;;;;;;;;;;;;;;;5052980;28;20270;-43
2020/12/09 04:20:41;;;;;;;;;;;;;;;;;;5052983;28;20277;-42
2020/12/09 04:23:06;;;;;;;;;;;;;;;;;;5051055;28;20267;-42
2020/12/09 04:25:31;;;;;;;;;;;;;;;;;;5052785;28;20011;-42
2020/12/09 04:27:56;;;;;;;;;;;;;;;;;;5052734;28;20016;-43
2020/12/09 04:30:21;;;;;;;;;;;;;;;;;;5052835;28;19909;-44
2020/12/09 04:32:46;;;;;;;;;;;;;;;;;;5052016;28;20385;-43
2020/12/09 04:35:12;;;;;;;;;;;;;;;;;;5052644;28;20386;-44
2020/12/09 04:37:37;;;;;;;;;;;;;;;;;;5052640;28;19955;-43
2020/12/09 04:40:02;;;;;;;;;;;;;;;;;;5052482;28;19909;-43
2020/12/09 04:42:27;;;;;;;;;;;;;;;;;;5052019;28;19912;-43
2020/12/09 04:44:52;;;;;;;;;;;;;;;;;;5052477;28;19909;-43
2020/12/09 04:47:17;;;;;;;;;;;;;;;;;;5052610;28;19916;-42
2020/12/09 04:49:42;;;;;;;;;;;;;;;;;;5052455;28;19935;-44
2020/12/09 04:52:07;;;;;;;;;;;;;;;;;;5051801;28;19912;-42
2020/12/09 04:54:32;;;;;;;;;;;;;;;;;;5052158;28;19913;-42
2020/12/09 04:56:57;;;;;;;;;;;;;;;;;;5052410;28;19915;-42
2020/12/09 04:59:23;;;;;;;;;;;;;;;;;;5052268;28;19905;-43
2020/12/09 05:01:48;;;;;;;;;;;;;;;;;;5052230;28;19909;-41
2020/12/09 05:04:13;;;;;;;;;;;;;;;;;;5051524;28;19912;-42
2020/12/09 05:06:38;;;;;;;;;;;;;;;;;;5052273;28;19916;-42
2020/12/09 05:09:03;;;;;;;;;;;;;;;;;;5052060;28;19972;-42
2020/12/09 05:11:28;;;;;;;;;;;;;;;;;;5052207;28;19909;-41
2020/12/09 05:13:53;;;;;;;;;;;;;;;;;;5107835;22;19924;-39
2020/12/09 05:16:18;;;;;;;;;;;;;;;;;;5052412;28;19909;-39
2020/12/09 05:18:44;;;;;;;;;;;;;;;;;;5052644;28;19909;-39
2020/12/09 05:21:09;;;;;;;;;;;;;;;;;;5052672;28;19919;-39
2020/12/09 05:23:34;;;;;;;;;;;;;;;;;;5051633;28;20003;-39
2020/12/09 05:25:59;;;;;;;;;;;;;;;;;;5052067;28;19909;-39
2020/12/09 05:28:24;;;;;;;;;;;;;;;;;;5052401;28;20370;-39
2020/12/09 05:30:52;;;;;;;;;;;;;;;;;;5052302;28;20424;-40
2020/12/09 05:33:17;;;;;;;;;;;;;;;;;;5051599;28;19909;-40
2020/12/09 05:35:42;;;;;;;;;;;;;;;;;;5052385;28;19908;-39
2020/12/09 05:38:07;;;;;;;;;;;;;;;;;;5052179;28;19909;-39
2020/12/09 05:40:33;;;;;;;;;;;;;;;;;;5052397;28;20003;-39
2020/12/09 05:42:58;;;;;;;;;;;;;;;;;;5051804;28;20262;-39
2020/12/09 05:45:23;;;;;;;;;;;;;;;;;;5051973;28;20373;-39
2020/12/09 05:47:48;;;;;;;;;;;;;;;;;;5052060;28;19908;-39
2020/12/09 05:50:13;;;;;;;;;;;;;;;;;;5052162;28;19916;-39
2020/12/09 05:52:38;;;;;;;;;;;;;;;;;;5051506;28;19968;-39
2020/12/09 05:55:03;;;;;;;;;;;;;;;;;;5051906;28;20003;-39
2020/12/09 05:57:28;;;;;;;;;;;;;;;;;;5052516;28;20007;-39
2020/12/09 05:59:53;;;;;;;;;;;;;;;;;;5052147;28;20004;-40
2020/12/09 06:02:18;;;;;;;;;;;;;;;;;;5051452;28;19992;-39
2020/12/09 06:04:44;;;;;;;;;;;;;;;;;;5052107;28;20035;-41
2020/12/09 06:07:09;;;;;;;;;;;;;;;;;;5052135;28;19916;-38
2020/12/09 06:09:34;;;;;;;;;;;;;;;;;;5051851;28;19916;-40
2020/12/09 06:11:59;;;;;;;;;;;;;;;;;;5051250;28;19916;-38
2020/12/09 06:14:24;;;;;;;;;;;;;;;;;;5051628;28;20035;-39
2020/12/09 06:16:49;;;;;;;;;;;;;;;;;;5051874;28;20309;-39
2020/12/09 06:19:14;;;;;;;;;;;;;;;;;;5051954;28;20366;-40
2020/12/09 06:21:39;;;;;;;;;;;;;;;;;;5053808;28;19913;-39
2020/12/09 06:24:04;;;;;;;;;;;;;;;;;;5052681;28;19909;-39
2020/12/09 06:26:29;;;;;;;;;;;;;;;;;;5055370;28;19963;-39
2020/12/09 06:28:54;;;;;;;;;;;;;;;;;;5055437;28;20385;-39
2020/12/09 06:31:20;;;;;;;;;;;;;;;;;;5054246;28;19916;-39
2020/12/09 06:33:45;;;;;;;;;;;;;;;;;;5044851;28;19913;-40
2020/12/09 06:36:10;;;;;;;;;;;;;;;;;;5036685;28;19917;-39
2020/12/09 06:38:35;;;;;;;;;;;;;;;;;;5044398;28;20362;-40
2020/12/09 06:41:00;;;;;;;;;;;;;;;;;;5041919;28;19920;-39
2020/12/09 06:43:25;;;;;;;;;;;;;;;;;;5053287;28;20396;-39
2020/12/09 06:45:51;;;;;;;;;;;;;;;;;;5041998;28;20301;-39
2020/12/09 06:48:16;;;;;;;;;;;;;;;;;;5034378;28;20366;-39
2020/12/09 06:50:44;;;;;;;;;;;;;;;;;;5034365;28;19909;-39
2020/12/09 06:53:09;;;;;;;;;;;;;;;;;;5035361;28;19956;-41
2020/12/09 06:55:34;;;;;;;;;;;;;;;;;;5053989;28;19909;-39
2020/12/09 06:57:59;;;;;;;;;;;;;;;;;;5054301;28;19909;-40
2020/12/09 07:00:24;;;;;;;;;;;;;;;;;;5053797;28;19909;-40
2020/12/09 07:02:49;;;;;;;;;;;;;;;;;;5053018;28;19939;-39
2020/12/09 07:05:14;;;;;;;;;;;;;;;;;;5054045;28;19955;-40
2020/12/09 07:07:40;;;;;;;;;;;;;;;;;;5053920;28;20294;-39
2020/12/09 07:10:05;;;;;;;;;;;;;;;;;;5052444;28;20377;-38
2020/12/09 07:12:30;;;;;;;;;;;;;;;;;;5032832;28;19944;-39
2020/12/09 07:14:55;;;;;;;;;;;;;;;;;;5033457;28;19917;-39
2020/12/09 07:17:21;;;;;;;;;;;;;;;;;;5033805;28;19929;-39
2020/12/09 07:19:46;;;;;;;;;;;;;;;;;;5033370;28;19976;-39
2020/12/09 07:22:11;;;;;;;;;;;;;;;;;;5032743;28;19928;-39
2020/12/09 07:24:37;;;;;;;;;;;;;;;;;;5031770;28;20031;-39
2020/12/09 07:27:02;;;;;;;;;;;;;;;;;;5033422;28;20007;-38
2020/12/09 07:29:28;;;;;;;;;;;;;;;;;;5033597;28;19909;-39
2020/12/09 07:31:59;;;;;;;;;;;;;;;;;;5033370;28;19967;-38
2020/12/09 07:34:24;;;;;;;;;;;;;;;;;;5033199;28;19915;-40
2020/12/09 07:36:50;;;;;;;;;;;;;;;;;;5033052;28;19916;-40
2020/12/09 07:39:16;;;;;;;;;;;;;;;;;;5033115;28;20038;-38
2020/12/09 07:41:41;;;;;;;;;;;;;;;;;;5033402;28;19941;-41
2020/12/09 07:44:06;;;;;;;;;;;;;;;;;;5032462;28;20219;-39
2020/12/09 07:46:31;;;;;;;;;;;;;;;;;;5048760;28;19956;-38
2020/12/09 07:48:56;;;;;;;;;;;;;;;;;;5043735;28;20036;-41
2020/12/09 07:51:21;;;;;;;;;;;;;;;;;;5041536;28;19975;-38
2020/12/09 07:53:46;;;;;;;;;;;;;;;;;;5032105;28;19913;-40
2020/12/09 07:56:11;;;;;;;;;;;;;;;;;;5048967;28;19912;-38
2020/12/09 07:58:38;;;;;;;;;;;;;;;;;;5052697;28;19909;-41
2020/12/09 08:01:03;;;;;;;;;;;;;;;;;;5052935;28;19951;-40
2020/12/09 08:03:28;;;;;;;;;;;;;;;;;;5046032;28;19968;-39
2020/12/09 08:05:53;;;;;;;;;;;;;;;;;;5032487;28;19952;-39
2020/12/09 08:08:20;;;;;;;;;;;;;;;;;;5032523;28;19970;-39
2020/12/09 08:10:45;;;;;;;;;;;;;;;;;;5033077;28;19909;-39
2020/12/09 08:13:10;;;;;;;;;;;;;;;;;;5031726;28;19988;-39
2020/12/09 08:15:35;;;;;;;;;;;;;;;;;;5032285;28;19924;-39
2020/12/09 08:18:00;;;;;;;;;;;;;;;;;;5032745;28;19913;-39
2020/12/09 08:20:26;;;;;;;;;;;;;;;;;;5037676;28;19909;-38
2020/12/09 08:22:51;;;;;;;;;;;;;;;;;;5050135;28;19912;-38
2020/12/09 08:25:16;;;;;;;;;;;;;;;;;;5052080;28;19996;-39
2020/12/09 08:27:41;;;;;;;;;;;;;;;;;;5052687;28;19909;-40
2020/12/09 08:30:06;;;;;;;;;;;;;;;;;;5052312;28;20337;-38
2020/12/09 08:32:31;;;;;;;;;;;;;;;;;;5051935;28;19939;-40
2020/12/09 08:34:56;;;;;;;;;;;;;;;;;;5052055;28;19916;-38
2020/12/09 08:37:21;;;;;;;;;;;;;;;;;;5052150;28;19913;-40
2020/12/09 08:39:46;;;;;;;;;;;;;;;;;;5051808;28;19908;-39
2020/12/09 08:42:11;;;;;;;;;;;;;;;;;;5051409;28;19912;-39
2020/12/09 08:44:37;;;;;;;;;;;;;;;;;;5051587;28;20006;-38
2020/12/09 08:47:02;;;;;;;;;;;;;;;;;;5052357;28;19998;-39
2020/12/09 08:49:27;;;;;;;;;;;;;;;;;;5051772;28;19909;-39
2020/12/09 08:51:52;;;;;;;;;;;;;;;;;;5051648;28;19913;-37
2020/12/09 08:54:18;;;;;;;;;;;;;;;;;;5046963;28;20350;-39
2020/12/09 08:56:43;;;;;;;;;;;;;;;;;;5031633;28;19909;-37
2020/12/09 08:59:10;;;;;;;;;;;;;;;;;;5031845;28;20428;-39
2020/12/09 09:01:35;;;;;;;;;;;;;;;;;;5031883;28;20390;-38
2020/12/09 09:04:06;;;;;;;;;;;;;;;;;;5031134;28;19928;-39
2020/12/09 09:06:31;;;;;;;;;;;;;;;;;;5031561;28;19920;-39
2020/12/09 09:08:56;;;;;;;;;;;;;;;;;;5045932;28;19913;-39
2020/12/09 09:11:21;;;;;;;;;;;;;;;;;;5051779;28;19913;-39
2020/12/09 09:13:47;;;;;;;;;;;;;;;;;;5051100;28;19917;-39
2020/12/09 09:16:12;;;;;;;;;;;;;;;;;;5051558;28;20455;-39
2020/12/09 09:18:37;;;;;;;;;;;;;;;;;;5051557;28;20381;-39
2020/12/09 09:21:02;;;;;;;;;;;;;;;;;;5051579;28;19916;-41
2020/12/09 09:23:27;;;;;;;;;;;;;;;;;;5050072;28;20004;-39
2020/12/09 09:25:52;;;;;;;;;;;;;;;;;;5051250;28;19905;-38
2020/12/09 09:28:17;;;;;;;;;;;;;;;;;;5051304;28;20004;-39
2020/12/09 09:30:42;;;;;;;;;;;;;;;;;;5051478;28;20007;-39
2020/12/09 09:33:07;;;;;;;;;;;;;;;;;;5050801;28;20046;-38
2020/12/09 09:35:33;;;;;;;;;;;;;;;;;;5051092;28;20364;-39
2020/12/09 09:37:58;;;;;;;;;;;;;;;;;;5051142;28;20524;-40
2020/12/09 09:40:23;;;;;;;;;;;;;;;;;;5051707;28;19995;-38
2020/12/09 09:42:48;;;;;;;;;;;;;;;;;;5050728;28;19999;-39
2020/12/09 09:45:13;;;;;;;;;;;;;;;;;;5050895;28;19995;-39
2020/12/09 09:47:38;;;;;;;;;;;;;;;;;;5051500;28;19931;-39
2020/12/09 09:50:03;;;;;;;;;;;;;;;;;;5051242;28;19916;-39
2020/12/09 09:52:28;;;;;;;;;;;;;;;;;;5050594;28;19909;-39
2020/12/09 09:54:54;;;;;;;;;;;;;;;;;;5051013;28;20370;-38
2020/12/09 09:57:19;;;;;;;;;;;;;;;;;;5054548;28;20271;-39
2020/12/09 09:59:44;;;;;;;;;;;;;;;;;;5055101;28;20370;-39
2020/12/09 10:02:09;;;;;;;;;;;;;;;;;;5054329;28;19913;-39
2020/12/09 10:04:34;;;;;;;;;;;;;;;;;;5054870;28;19909;-37
2020/12/09 10:06:59;;;;;;;;;;;;;;;;;;5054949;28;19999;-38
2020/12/09 10:09:25;;;;;;;;;;;;;;;;;;5053535;28;20025;-38
2020/12/09 10:11:50;;;;;;;;;;;;;;;;;;5054569;28;20109;-36
2020/12/09 10:14:15;;;;;;;;;;;;;;;;;;5053997;28;20440;-38
2020/12/09 10:16:43;;;;;;;;;;;;;;;;;;5055084;28;19916;-39
2020/12/09 10:19:08;;;;;;;;;;;;;;;;;;5054743;28;19944;-39
2020/12/09 10:21:33;;;;;;;;;;;;;;;;;;5054181;28;19962;-47
2020/12/09 10:23:58;;;;;;;;;;;;;;;;;;5050658;28;19916;-43
2020/12/09 10:26:23;;;;;;;;;;;;;;;;;;5052829;28;19909;-44
2020/12/09 10:28:48;;;;;;;;;;;;;;;;;;5054104;28;20042;-44
2020/12/09 10:31:14;;;;;;;;;;;;;;;;;;5054636;28;20007;-45
2020/12/09 10:33:39;;;;;;;;;;;;;;;;;;5054689;28;19995;-42
2020/12/09 10:36:07;;;;;;;;;;;;;;;;;;5053923;28;20476;-43
2020/12/09 10:38:32;;;;;;;;;;;;;;;;;;5053967;28;19944;-43
2020/12/09 10:40:57;;;;;;;;;;;;;;;;;;5045338;28;19959;-44
2020/12/09 10:43:22;;;;;;;;;;;;;;;;;;5034011;28;19947;-49
2020/12/09 10:45:47;;;;;;;;;;;;;;;;;;5047697;28;19916;-43
2020/12/09 10:48:13;;;;;;;;;;;;;;;;;;5053481;28;19923;-41
2020/12/09 10:50:38;;;;;;;;;;;;;;;;;;5053915;28;19909;-44
2020/12/09 10:53:03;;;;;;;;;;;;;;;;;;5053635;28;19909;-43
2020/12/09 10:55:28;;;;;;;;;;;;;;;;;;5053743;28;19916;-44
2020/12/09 10:57:53;;;;;;;;;;;;;;;;;;5053382;28;20007;-44
2020/12/09 11:00:18;;;;;;;;;;;;;;;;;;5053723;28;19944;-44
2020/12/09 11:02:43;;;;;;;;;;;;;;;;;;5053165;28;19959;-42
2020/12/09 11:05:08;;;;;;;;;;;;;;;;;;5053646;28;19955;-42
2020/12/09 11:07:34;;;;;;;;;;;;;;;;;;5052877;28;19948;-43
2020/12/09 11:09:59;;;;;;;;;;;;;;;;;;5053548;28;19940;-42
2020/12/09 11:12:24;;;;;;;;;;;;;;;;;;5053382;28;19936;-43
2020/12/09 11:14:49;;;;;;;;;;;;;;;;;;5068159;22;19929;-42
2020/12/09 11:17:14;;;;;;;;;;;;;;;;;;5053443;28;19916;-49
2020/12/09 11:19:39;;;;;;;;;;;;;;;;;;5053528;28;20449;-43
2020/12/09 11:22:05;;;;;;;;;;;;;;;;;;5052583;28;19992;-46
2020/12/09 11:24:30;;;;;;;;;;;;;;;;;;5035773;28;20012;-47
2020/12/09 11:26:55;;;;;;;;;;;;;;;;;;5033186;28;20048;-48
2020/12/09 11:29:20;;;;;;;;;;;;;;;;;;5033103;28;20271;-46
2020/12/09 11:31:45;;;;;;;;;;;;;;;;;;5032875;28;20388;-44
2020/12/09 11:34:10;;;;;;;;;;;;;;;;;;5032728;28;20383;-47
2020/12/09 11:36:35;;;;;;;;;;;;;;;;;;5035911;28;19913;-46
2020/12/09 11:39:00;;;;;;;;;;;;;;;;;;5052880;28;19909;-44
2020/12/09 11:41:26;;;;;;;;;;;;;;;;;;5052457;28;19958;-45
2020/12/09 11:43:51;;;;;;;;;;;;;;;;;;5052654;28;19917;-43
2020/12/09 11:46:16;;;;;;;;;;;;;;;;;;5070561;28;19908;-44
2020/12/09 11:48:41;;;;;;;;;;;;;;;;;;5072036;28;19908;-47
2020/12/09 11:51:06;;;;;;;;;;;;;;;;;;5056056;28;20000;-44
2020/12/09 11:53:33;;;;;;;;;;;;;;;;;;5069049;28;19998;-48
2020/12/09 11:55:58;;;;;;;;;;;;;;;;;;5053687;28;19982;-45
2020/12/09 11:58:23;;;;;;;;;;;;;;;;;;5056229;28;19960;-42
2020/12/09 12:00:48;;;;;;;;;;;;;;;;;;5072401;28;19936;-46
2020/12/09 12:03:13;;;;;;;;;;;;;;;;;;5072372;28;19952;-50
2020/12/09 12:05:40;;;;;;;;;;;;;;;;;;5072207;28;19908;-45
2020/12/09 12:08:06;;;;;;;;;;;;;;;;;;5058778;28;20003;-49
2020/12/09 12:10:31;;;;;;;;;;;;;;;;;;5052757;28;20431;-48
2020/12/09 12:12:57;;;;;;;;;;;;;;;;;;5051796;28;19909;-46
2020/12/09 12:15:22;;;;;;;;;;;;;;;;;;5051866;28;19917;-45
2020/12/09 12:17:47;;;;;;;;;;;;;;;;;;5052051;28;19909;-43
2020/12/09 12:20:12;;;;;;;;;;;;;;;;;;5051257;28;19944;-46
2020/12/09 12:22:37;;;;;;;;;;;;;;;;;;5052087;28;20382;-44
2020/12/09 12:25:02;;;;;;;;;;;;;;;;;;5038584;28;20374;-49
2020/12/09 12:27:27;;;;;;;;;;;;;;;;;;5031794;28;20294;-46
2020/12/09 12:29:53;;;;;;;;;;;;;;;;;;5032248;28;19909;-45
2020/12/09 12:32:18;;;;;;;;;;;;;;;;;;5032059;28;19909;-44
2020/12/09 12:34:43;;;;;;;;;;;;;;;;;;5031703;28;19913;-45
2020/12/09 12:37:08;;;;;;;;;;;;;;;;;;5031669;28;20375;-48
2020/12/09 12:39:33;;;;;;;;;;;;;;;;;;5032310;28;20615;-44
2020/12/09 12:41:58;;;;;;;;;;;;;;;;;;5030310;28;19960;-45
2020/12/09 12:44:24;;;;;;;;;;;;;;;;;;5036390;28;20374;-44
2020/12/09 12:46:49;;;;;;;;;;;;;;;;;;5071908;28;20157;-46
2020/12/09 12:49:14;;;;;;;;;;;;;;;;;;5071676;28;19932;-47
2020/12/09 12:51:39;;;;;;;;;;;;;;;;;;5071764;28;20019;-46
2020/12/09 12:54:06;;;;;;;;;;;;;;;;;;5071286;28;20007;-46
2020/12/09 12:56:31;;;;;;;;;;;;;;;;;;5071635;28;19954;-46
2020/12/09 12:58:56;;;;;;;;;;;;;;;;;;5071624;28;19908;-44
2020/12/09 13:01:21;;;;;;;;;;;;;;;;;;5071358;28;19999;-47
2020/12/09 13:03:46;;;;;;;;;;;;;;;;;;5071294;28;19916;-46
2020/12/09 13:06:11;;;;;;;;;;;;;;;;;;5071332;28;19915;-46
2020/12/09 13:08:37;;;;;;;;;;;;;;;;;;5071399;28;20011;-44
2020/12/09 13:11:02;;;;;;;;;;;;;;;;;;5071121;28;19999;-43
2020/12/09 13:13:27;;;;;;;;;;;;;;;;;;5071052;28;19908;-45
2020/12/09 13:15:52;;;;;;;;;;;;;;;;;;5071370;28;19955;-43
2020/12/09 13:18:17;;;;;;;;;;;;;;;;;;5055608;28;19916;-43
2020/12/09 13:20:42;;;;;;;;;;;;;;;;;;5050916;28;19909;-47
2020/12/09 13:23:07;;;;;;;;;;;;;;;;;;5051075;28;20393;-47
2020/12/09 13:25:33;;;;;;;;;;;;;;;;;;5042833;28;19928;-46
2020/12/09 13:27:58;;;;;;;;;;;;;;;;;;5030339;28;19982;-44
2020/12/09 13:30:24;;;;;;;;;;;;;;;;;;5032798;28;19916;-49
2020/12/09 13:32:49;;;;;;;;;;;;;;;;;;5035392;28;20287;-46
2020/12/09 13:35:14;;;;;;;;;;;;;;;;;;5035047;28;19913;-43
2020/12/09 13:37:39;;;;;;;;;;;;;;;;;;5035227;28;20007;-45
2020/12/09 13:40:04;;;;;;;;;;;;;;;;;;5035588;28;19915;-46
2020/12/09 13:42:30;;;;;;;;;;;;;;;;;;5034989;28;19935;-45
2020/12/09 13:44:55;;;;;;;;;;;;;;;;;;5048619;28;19908;-42
2020/12/09 13:47:20;;;;;;;;;;;;;;;;;;5074867;28;19909;-43
2020/12/09 13:49:45;;;;;;;;;;;;;;;;;;5075008;28;19916;-46
2020/12/09 13:52:10;;;;;;;;;;;;;;;;;;5074801;28;19920;-41
2020/12/09 13:54:35;;;;;;;;;;;;;;;;;;5074787;28;19913;-43
2020/12/09 13:57:00;;;;;;;;;;;;;;;;;;5074775;28;19908;-43
2020/12/09 13:59:25;;;;;;;;;;;;;;;;;;5075083;28;19909;-43
2020/12/09 14:01:50;;;;;;;;;;;;;;;;;;5074476;28;20359;-43
2020/12/09 14:04:16;;;;;;;;;;;;;;;;;;5074347;28;20441;-43
2020/12/09 14:06:41;;;;;;;;;;;;;;;;;;5074032;28;19909;-48
2020/12/09 14:09:06;;;;;;;;;;;;;;;;;;5074915;28;19916;-46
2020/12/09 14:11:31;;;;;;;;;;;;;;;;;;5074302;28;20026;-45
2020/12/09 14:13:56;;;;;;;;;;;;;;;;;;5074132;28;20015;-47
2020/12/09 14:16:21;;;;;;;;;;;;;;;;;;5074352;28;19916;-45
2020/12/09 14:18:48;;;;;;;;;;;;;;;;;;5054858;28;20309;-46
2020/12/09 14:21:13;;;;;;;;;;;;;;;;;;5054434;28;19979;-45
2020/12/09 14:23:38;;;;;;;;;;;;;;;;;;5054240;28;19909;-45
2020/12/09 14:26:03;;;;;;;;;;;;;;;;;;5050316;28;19920;-44
2020/12/09 14:28:28;;;;;;;;;;;;;;;;;;5033176;28;19959;-44
2020/12/09 14:30:53;;;;;;;;;;;;;;;;;;5034247;28;19909;-42
2020/12/09 14:33:18;;;;;;;;;;;;;;;;;;5033783;28;19916;-47
2020/12/09 14:35:43;;;;;;;;;;;;;;;;;;5034227;28;20000;-43
2020/12/09 14:38:09;;;;;;;;;;;;;;;;;;5033999;28;20449;-46
2020/12/09 14:40:34;;;;;;;;;;;;;;;;;;5034156;28;19963;-43
2020/12/09 14:43:00;;;;;;;;;;;;;;;;;;5033087;28;19913;-45
2020/12/09 14:45:25;;;;;;;;;;;;;;;;;;5055914;28;20285;-44
2020/12/09 14:47:50;;;;;;;;;;;;;;;;;;5073802;28;20289;-45
2020/12/09 14:50:16;;;;;;;;;;;;;;;;;;5073485;28;20318;-46
2020/12/09 14:52:41;;;;;;;;;;;;;;;;;;5074137;28;19916;-44
2020/12/09 14:55:06;;;;;;;;;;;;;;;;;;5073940;28;19971;-43
2020/12/09 14:57:31;;;;;;;;;;;;;;;;;;5073554;28;19924;-47
2020/12/09 14:59:56;;;;;;;;;;;;;;;;;;5073328;28;19912;-46
2020/12/09 15:02:21;;;;;;;;;;;;;;;;;;5073637;28;19954;-45
2020/12/09 15:04:46;;;;;;;;;;;;;;;;;;5073977;28;19916;-46
2020/12/09 15:07:11;;;;;;;;;;;;;;;;;;5073776;28;19912;-46
2020/12/09 15:09:37;;;;;;;;;;;;;;;;;;5073708;28;19999;-44
2020/12/09 15:12:02;;;;;;;;;;;;;;;;;;5073106;28;19999;-47
2020/12/09 15:14:27;;;;;;;;;;;;;;;;;;5073350;28;19912;-43
2020/12/09 15:16:52;;;;;;;;;;;;;;;;;;5069449;28;19982;-42
2020/12/09 15:19:17;;;;;;;;;;;;;;;;;;5053501;28;19916;-46
2020/12/09 15:21:42;;;;;;;;;;;;;;;;;;5053142;28;19909;-47
2020/12/09 15:24:11;;;;;;;;;;;;;;;;;;5052904;28;19909;-45
2020/12/09 15:26:36;;;;;;;;;;;;;;;;;;5052996;28;20452;-44
2020/12/09 15:29:01;;;;;;;;;;;;;;;;;;5032067;28;20337;-44
2020/12/09 15:31:26;;;;;;;;;;;;;;;;;;5033211;28;20004;-47
2020/12/09 15:33:52;;;;;;;;;;;;;;;;;;5032685;28;19913;-45
2020/12/09 15:36:17;;;;;;;;;;;;;;;;;;5033072;28;20337;-45
2020/12/09 15:38:42;;;;;;;;;;;;;;;;;;5033136;28;20394;-48
2020/12/09 15:41:07;;;;;;;;;;;;;;;;;;5032923;28;19909;-46
2020/12/09 15:43:33;;;;;;;;;;;;;;;;;;5032711;28;19909;-48
2020/12/09 15:45:58;;;;;;;;;;;;;;;;;;5063620;28;19915;-48
2020/12/09 15:48:23;;;;;;;;;;;;;;;;;;5072660;28;20321;-46
2020/12/09 15:50:48;;;;;;;;;;;;;;;;;;5072218;28;20366;-46
2020/12/09 15:53:14;;;;;;;;;;;;;;;;;;5071563;28;20003;-46
2020/12/09 15:55:39;;;;;;;;;;;;;;;;;;5072347;28;20007;-44
2020/12/09 15:58:04;;;;;;;;;;;;;;;;;;5072720;28;19991;-46
2020/12/09 16:00:30;;;;;;;;;;;;;;;;;;5072381;28;19927;-46
2020/12/09 16:02:56;;;;;;;;;;;;;;;;;;5072163;28;19915;-47
2020/12/09 16:05:21;;;;;;;;;;;;;;;;;;5072476;28;19908;-46
2020/12/09 16:07:47;;;;;;;;;;;;;;;;;;5072246;28;19913;-47
2020/12/09 16:10:12;;;;;;;;;;;;;;;;;;5071856;28;19920;-48
2020/12/09 16:12:38;;;;;;;;;;;;;;;;;;5072011;28;20011;-47
2020/12/09 16:15:03;;;;;;;;;;;;;;;;;;5071978;28;19939;-47
2020/12/09 16:17:28;;;;;;;;;;;;;;;;;;5063295;28;20511;-45
2020/12/09 16:19:53;;;;;;;;;;;;;;;;;;5051966;28;19971;-45
2020/12/09 16:22:18;;;;;;;;;;;;;;;;;;5052073;28;19908;-46
2020/12/09 16:24:44;;;;;;;;;;;;;;;;;;5051882;28;19909;-45
2020/12/09 16:27:09;;;;;;;;;;;;;;;;;;5052013;28;19982;-43
2020/12/09 16:29:34;;;;;;;;;;;;;;;;;;5034513;28;20015;-46
2020/12/09 16:31:59;;;;;;;;;;;;;;;;;;5031704;28;20078;-48
2020/12/09 16:34:24;;;;;;;;;;;;;;;;;;5031583;28;19956;-46